Time;durP1;ratioP1;P1;durP2;ratioP2;P2;SDS_P1;SDS_P2;PMS_P1;PMS_P2;Temp;Humidity;BMP_temperature;BMP_pressure;BME280_temperature;BME280_humidity;BME280_pressure;Samples;Min_cycle;Max_cycle;Signal;HPM_P1;HPM_P2
2021/05/25 00:00:14;;;;;;;1.80;1.50;;;18.00;99.90;;;;;;5012616;28;20422;-79
2021/05/25 00:02:41;;;;;;;1.43;1.07;;;18.00;99.90;;;;;;5011609;28;20437;-77
2021/05/25 00:05:09;;;;;;;2.43;1.67;;;17.90;99.90;;;;;;5010850;28;20507;-77
2021/05/25 00:07:35;;;;;;;2.80;1.47;;;18.00;99.90;;;;;;5012114;28;20792;-77
2021/05/25 00:10:00;;;;;;;1.40;1.30;;;18.00;99.90;;;;;;5011945;28;20459;-77
2021/05/25 00:12:26;;;;;;;1.40;1.23;;;18.00;99.90;;;;;;5010011;28;20508;-77
2021/05/25 00:14:52;;;;;;;1.80;1.70;;;18.00;99.90;;;;;;5012034;28;20180;-78
2021/05/25 00:17:18;;;;;;;2.63;1.80;;;17.90;99.90;;;;;;5011108;28;20191;-77
2021/05/25 00:19:43;;;;;;;1.60;1.33;;;17.90;99.90;;;;;;5011821;28;20502;-77
2021/05/25 00:22:09;;;;;;;1.50;1.33;;;17.80;99.90;;;;;;5012697;28;20264;-78
2021/05/25 00:24:35;;;;;;;1.93;1.80;;;17.60;99.90;;;;;;5014215;28;20186;-77
2021/05/25 00:27:01;;;;;;;3.90;1.20;;;17.50;99.90;;;;;;5015408;28;20178;-78
2021/05/25 00:29:26;;;;;;;2.03;1.50;;;17.30;99.90;;;;;;5015566;28;20413;-77
2021/05/25 00:31:52;;;;;;;3.87;1.70;;;17.20;99.90;;;;;;5014309;28;20567;-78
2021/05/25 00:34:17;;;;;;;1.83;1.40;;;17.10;99.90;;;;;;5016029;28;20184;-77
2021/05/25 00:36:43;;;;;;;1.83;1.33;;;17.00;99.90;;;;;;5014272;28;20526;-77
2021/05/25 00:39:08;;;;;;;5.43;2.20;;;17.00;99.90;;;;;;5015516;28;20174;-77
2021/05/25 00:41:35;;;;;;;1.57;1.27;;;17.00;99.90;;;;;;5015904;28;20669;-77
2021/05/25 00:44:02;;;;;;;2.33;1.13;;;16.90;99.90;;;;;;5016019;28;20182;-77
2021/05/25 00:46:27;;;;;;;1.13;1.00;;;16.90;99.90;;;;;;5015838;28;20413;-76
2021/05/25 00:48:53;;;;;;;1.97;1.50;;;17.00;99.90;;;;;;5015424;28;20419;-77
2021/05/25 00:51:18;;;;;;;1.37;1.10;;;16.90;99.90;;;;;;5014817;28;20224;-77
2021/05/25 00:53:44;;;;;;;4.00;2.03;;;16.80;99.90;;;;;;5014967;28;20198;-77
2021/05/25 00:56:11;;;;;;;1.70;1.30;;;16.90;99.90;;;;;;5014770;28;20257;-77
2021/05/25 00:58:37;;;;;;;2.40;1.30;;;16.80;99.90;;;;;;5014654;28;20190;-77
2021/05/25 01:01:06;;;;;;;2.70;1.40;;;16.80;99.90;;;;;;5014614;28;20970;-78
2021/05/25 01:03:32;;;;;;;9.40;1.20;;;16.60;99.90;;;;;;5014870;28;20415;-77
2021/05/25 01:05:57;;;;;;;2.53;1.33;;;16.60;99.90;;;;;;5015048;28;20405;-77
2021/05/25 01:08:23;;;;;;;1.37;1.17;;;16.60;99.90;;;;;;5014905;28;20761;-76
2021/05/25 01:10:56;;;;;;;1.30;1.10;;;16.60;99.90;;;;;;5014847;28;20190;-77
2021/05/25 01:13:23;;;;;;;1.50;1.23;;;16.70;99.90;;;;;;4998078;28;20421;-77
2021/05/25 01:15:50;;;;;;;2.00;1.57;;;16.80;99.90;;;;;;5014860;28;20748;-78
2021/05/25 01:18:16;;;;;;;1.73;1.00;;;16.70;99.90;;;;;;5014679;28;20451;-77
2021/05/25 01:20:45;;;;;;;1.77;1.10;;;16.70;99.90;;;;;;5013448;28;20424;-78
2021/05/25 01:23:10;;;;;;;2.07;1.20;;;16.70;99.90;;;;;;5013198;28;20920;-77
2021/05/25 01:25:38;;;;;;;1.50;1.10;;;16.50;99.90;;;;;;5014863;28;20466;-77
2021/05/25 01:28:06;;;;;;;1.30;1.10;;;16.60;99.90;;;;;;5014630;28;20265;-78
2021/05/25 01:30:39;;;;;;;1.50;1.23;;;16.50;99.90;;;;;;5014469;28;20964;-77
2021/05/25 01:33:05;;;;;;;2.60;1.60;;;16.40;99.90;;;;;;5012909;28;20429;-77
2021/05/25 01:35:32;;;;;;;1.77;1.27;;;16.40;99.90;;;;;;5014422;28;20931;-77
2021/05/25 01:37:58;;;;;;;1.80;1.33;;;16.40;99.90;;;;;;5012990;28;20413;-77
2021/05/25 01:40:26;;;;;;;2.93;1.53;;;16.20;99.90;;;;;;5014443;28;21063;-77
2021/05/25 01:42:52;;;;;;;1.53;1.10;;;16.20;99.90;;;;;;5013991;28;20440;-77
2021/05/25 01:45:25;;;;;;;2.13;1.50;;;16.30;99.90;;;;;;5014153;28;20417;-77
2021/05/25 01:47:52;;;;;;;2.33;1.17;;;16.20;99.90;;;;;;5014113;28;20491;-77
2021/05/25 01:50:19;;;;;;;3.33;1.30;;;16.40;99.90;;;;;;4996372;28;20461;-77
2021/05/25 01:53:00;;;;;;;1.60;1.30;;;16.50;99.90;;;;;;5013668;28;20524;-77
2021/05/25 01:55:39;;;;;;;3.90;1.47;;;16.50;99.90;;;;;;5012461;28;20908;-77
2021/05/25 01:58:25;;;;;;;1.67;1.30;;;16.50;99.90;;;;;;5013433;28;20554;-76
2021/05/25 02:01:08;;;;;;;2.40;1.83;;;16.60;99.90;;;;;;5013379;28;20407;-77
2021/05/25 02:03:35;;;;;;;2.40;1.07;;;16.50;99.90;;;;;;5013521;28;20453;-76
2021/05/25 02:06:01;;;;;;;2.17;1.43;;;16.60;99.90;;;;;;5013548;28;20443;-77
2021/05/25 02:08:27;;;;;;;1.73;1.30;;;16.50;99.90;;;;;;5012101;28;21074;-77
2021/05/25 02:10:55;;;;;;;1.63;1.13;;;16.50;99.90;;;;;;5012223;28;20518;-77
2021/05/25 02:13:22;;;;;;;7.83;3.40;;;16.30;99.90;;;;;;5013067;28;20206;-77
2021/05/25 02:15:51;;;;;;;1.83;1.53;;;16.20;99.90;;;;;;5011897;28;20451;-77
2021/05/25 02:18:23;;;;;;;2.27;1.50;;;16.10;99.90;;;;;;5013210;28;20997;-77
2021/05/25 02:20:51;;;;;;;2.70;1.37;;;16.10;99.90;;;;;;5013039;28;20418;-77
2021/05/25 02:23:17;;;;;;;2.60;1.27;;;15.60;99.90;;;;;;5012945;28;20407;-77
2021/05/25 02:25:43;;;;;;;1.30;1.20;;;15.20;99.90;;;;;;5013694;28;20473;-78
2021/05/25 02:28:10;;;;;;;1.73;1.30;;;15.00;99.90;;;;;;5013295;28;20497;-77
2021/05/25 02:30:36;;;;;;;1.63;1.30;;;15.20;99.90;;;;;;5013334;28;20249;-78
2021/05/25 02:33:06;;;;;;;2.53;1.80;;;15.50;99.90;;;;;;5013253;28;20426;-77
2021/05/25 02:35:33;;;;;;;2.53;1.70;;;15.70;99.90;;;;;;5013438;28;20490;-76
2021/05/25 02:37:58;;;;;;;1.70;1.38;;;15.20;99.90;;;;;;5013312;28;20411;-76
2021/05/25 02:40:27;;;;;;;1.80;1.43;;;15.30;99.90;;;;;;5012081;28;20179;-77
2021/05/25 02:42:54;;;;;;;2.23;1.80;;;15.50;99.90;;;;;;5012669;28;20199;-77
2021/05/25 02:45:20;;;;;;;1.90;1.47;;;15.60;99.90;;;;;;5011349;28;20442;-76
2021/05/25 02:47:46;;;;;;;3.93;1.73;;;15.60;99.90;;;;;;5012061;28;20431;-77
2021/05/25 02:50:12;;;;;;;3.53;1.70;;;15.70;99.90;;;;;;5012786;28;20462;-77
2021/05/25 02:52:40;;;;;;;2.77;1.60;;;15.80;99.90;;;;;;5013267;28;20486;-79
2021/05/25 02:55:10;;;;;;;1.57;1.47;;;15.80;99.90;;;;;;5012717;28;20418;-76
2021/05/25 02:57:36;;;;;;;1.90;1.70;;;15.90;99.90;;;;;;5012738;28;20410;-78
2021/05/25 03:00:05;;;;;;;1.73;1.33;;;15.70;99.90;;;;;;5013219;28;20514;-78
2021/05/25 03:02:30;;;;;;;1.63;1.47;;;15.70;99.90;;;;;;5011451;28;20235;-78
2021/05/25 03:04:56;;;;;;;2.63;1.57;;;15.80;99.90;;;;;;5013111;28;20415;-78
2021/05/25 03:07:22;;;;;;;2.93;1.70;;;15.80;99.90;;;;;;5012144;28;20186;-77
2021/05/25 03:09:47;;;;;;;2.50;1.77;;;15.80;99.90;;;;;;5011871;28;20258;-78
2021/05/25 03:12:13;;;;;;;3.37;1.67;;;15.80;99.90;;;;;;5012568;28;20197;-77
2021/05/25 03:14:41;;;;;;;3.13;1.73;;;15.80;99.90;;;;;;5013117;28;20191;-78
2021/05/25 03:17:07;;;;;;;1.90;1.80;;;15.90;99.90;;;;;;5012946;28;20271;-78
2021/05/25 03:19:32;;;;;;;4.07;1.97;;;16.00;99.90;;;;;;5012254;28;20421;-77
2021/05/25 03:21:58;;;;;;;2.07;1.67;;;16.10;99.90;;;;;;5012592;28;20288;-76
2021/05/25 03:24:23;;;;;;;1.93;1.63;;;16.10;99.90;;;;;;5012219;28;20657;-76
2021/05/25 03:26:49;;;;;;;4.70;1.63;;;16.20;99.90;;;;;;5012410;28;20186;-78
2021/05/25 03:29:15;;;;;;;4.30;2.17;;;16.20;99.90;;;;;;5012297;28;20178;-77
2021/05/25 03:31:41;;;;;;;1.70;1.47;;;16.20;99.90;;;;;;5010762;28;20477;-77
2021/05/25 03:34:07;;;;;;;1.60;1.50;;;16.00;99.90;;;;;;5011176;28;20417;-77
2021/05/25 03:36:32;;;;;;;2.03;1.63;;;16.00;99.90;;;;;;5010829;28;20170;-77
2021/05/25 03:38:58;;;;;;;1.40;1.30;;;15.90;99.90;;;;;;5012596;28;20174;-78
2021/05/25 03:41:24;;;;;;;3.50;1.57;;;16.00;99.90;;;;;;5010502;28;20219;-77
2021/05/25 03:43:49;;;;;;;1.87;1.50;;;16.00;99.90;;;;;;5012020;28;20586;-77
2021/05/25 03:46:15;;;;;;;1.87;1.67;;;16.00;99.90;;;;;;4994503;28;20700;-78
2021/05/25 03:48:40;;;;;;;3.13;1.80;;;15.90;99.90;;;;;;5012310;28;20174;-76
2021/05/25 03:51:08;;;;;;;1.57;1.30;;;15.80;99.90;;;;;;5012006;28;20584;-78
2021/05/25 03:53:35;;;;;;;1.23;1.13;;;15.70;99.90;;;;;;5012453;28;20181;-78
2021/05/25 03:58:51;;;;;;;5.60;2.50;;;15.90;99.90;;;;;;5016339;28;20474;-77
2021/05/25 04:01:21;;;;;;;2.00;1.80;;;15.90;99.90;;;;;;5015931;28;20438;-77
2021/05/25 04:03:51;;;;;;;6.53;2.70;;;15.90;99.90;;;;;;5015985;28;20900;-77
2021/05/25 04:06:17;;;;;;;2.70;2.00;;;15.90;99.90;;;;;;5016588;28;20795;-78
2021/05/25 04:08:43;;;;;;;4.50;2.67;;;15.90;99.90;;;;;;5015430;28;20427;-77
2021/05/25 04:11:09;;;;;;;2.33;2.10;;;15.90;99.90;;;;;;5015128;28;20475;-78
2021/05/25 04:13:35;;;;;;;2.13;1.90;;;16.10;99.90;;;;;;5016322;28;20777;-79
2021/05/25 04:16:01;;;;;;;2.43;2.20;;;16.20;99.90;;;;;;5016279;28;20170;-78
2021/05/25 04:18:26;;;;;;;2.20;1.70;;;16.20;99.90;;;;;;5016372;28;20181;-78
2021/05/25 04:20:52;;;;;;;2.23;1.90;;;16.30;99.90;;;;;;5016481;28;20600;-77
2021/05/25 04:23:18;;;;;;;2.00;1.80;;;16.30;99.90;;;;;;5016137;28;20182;-79
2021/05/25 04:25:45;;;;;;;1.80;1.70;;;16.30;99.90;;;;;;5016288;28;20526;-79
2021/05/25 04:28:10;;;;;;;3.13;2.60;;;16.30;99.90;;;;;;5016373;28;20419;-78
2021/05/25 04:30:36;;;;;;;9.60;2.03;;;16.30;99.90;;;;;;5014865;28;20452;-79
2021/05/25 04:33:03;;;;;;;3.93;1.80;;;16.20;99.90;;;;;;5015384;28;20428;-78
2021/05/25 04:35:28;;;;;;;3.00;1.80;;;16.10;99.90;;;;;;5014572;28;20409;-78
2021/05/25 04:37:58;;;;;;;1.93;1.67;;;16.20;99.90;;;;;;5016601;28;20761;-78
2021/05/25 04:40:24;;;;;;;1.87;1.77;;;16.00;99.90;;;;;;5016345;28;20534;-78
2021/05/25 04:42:51;;;;;;;2.30;2.03;;;16.00;99.90;;;;;;5015279;28;20437;-77
2021/05/25 04:45:17;;;;;;;2.30;1.90;;;16.00;99.90;;;;;;5015536;28;20841;-77
2021/05/25 04:47:43;;;;;;;1.90;1.60;;;16.10;99.90;;;;;;5015124;28;20496;-78
2021/05/25 04:50:10;;;;;;;3.57;2.13;;;16.10;99.90;;;;;;5013976;28;20475;-78
2021/05/25 04:52:36;;;;;;;2.50;2.10;;;16.10;99.90;;;;;;5013477;28;20216;-78
2021/05/25 04:55:07;;;;;;;2.13;1.70;;;16.20;99.90;;;;;;5014907;28;20412;-77
2021/05/25 04:57:32;;;;;;;3.87;2.30;;;16.20;99.90;;;;;;5015092;28;20408;-78
2021/05/25 04:59:58;;;;;;;5.77;2.70;;;16.30;99.90;;;;;;5015276;28;20418;-78
2021/05/25 05:02:24;;;;;;;30.43;2.87;;;16.30;99.90;;;;;;5015041;28;20290;-78
2021/05/25 05:04:49;;;;;;;3.30;1.90;;;16.40;99.90;;;;;;5014391;28;20409;-79
2021/05/25 05:07:15;;;;;;;5.83;2.50;;;16.50;99.90;;;;;;5015290;28;20308;-79
2021/05/25 05:09:41;;;;;;;5.53;2.93;;;16.60;99.90;;;;;;5016998;28;20185;-79
2021/05/25 05:12:07;;;;;;;3.90;2.30;;;16.70;99.90;;;;;;5034396;28;20206;-78
2021/05/25 05:14:32;;;;;;;5.87;2.70;;;16.70;99.90;;;;;;5034474;28;20182;-77
2021/05/25 05:16:58;;;;;;;3.20;2.60;;;16.70;99.90;;;;;;5034751;28;20420;-77
2021/05/25 05:19:24;;;;;;;4.30;2.70;;;16.70;99.90;;;;;;5034707;28;20499;-78
2021/05/25 05:21:50;;;;;;;4.23;3.40;;;16.60;99.90;;;;;;5034211;28;20559;-78
2021/05/25 05:24:16;;;;;;;5.63;4.30;;;16.60;99.90;;;;;;5035937;28;20180;-77
2021/05/25 05:26:41;;;;;;;9.37;6.30;;;16.40;99.90;;;;;;5035414;28;20177;-78
2021/05/25 05:29:07;;;;;;;7.47;5.83;;;16.40;99.90;;;;;;5039110;28;20260;-78
2021/05/25 05:31:33;;;;;;;8.63;6.60;;;16.40;99.90;;;;;;5035466;28;20205;-77
2021/05/25 05:33:59;;;;;;;5.73;5.00;;;16.20;99.90;;;;;;5033989;28;20177;-78
2021/05/25 05:36:24;;;;;;;4.87;3.10;;;15.90;99.90;;;;;;5036377;28;20427;-78
2021/05/25 05:38:50;;;;;;;6.27;3.00;;;15.70;99.90;;;;;;5043990;28;20181;-77
2021/05/25 05:41:15;;;;;;;2.57;2.30;;;15.70;99.90;;;;;;5055127;28;20609;-78
2021/05/25 05:43:41;;;;;;;3.03;2.53;;;15.80;99.90;;;;;;5054580;28;20182;-80
2021/05/25 05:46:07;;;;;;;2.20;1.80;;;16.10;99.90;;;;;;5040914;28;20233;-81
2021/05/25 05:48:36;;;;;;;3.10;2.30;;;17.40;99.90;;;;;;5057519;28;20560;-81
2021/05/25 05:51:02;;;;;;;2.03;1.77;;;17.40;99.90;;;;;;5054726;28;20725;-81
2021/05/25 05:53:27;;;;;;;1.90;1.70;;;17.70;99.90;;;;;;5054846;28;20435;-79
2021/05/25 05:55:53;;;;;;;2.37;2.10;;;17.30;99.90;;;;;;5054207;28;20252;-78
2021/05/25 05:58:18;;;;;;;3.27;2.20;;;16.90;99.90;;;;;;5047227;28;20691;-81
2021/05/25 06:00:44;;;;;;;3.07;2.10;;;16.50;99.90;;;;;;5037101;28;20195;-80
2021/05/25 06:03:11;;;;;;;2.37;1.90;;;16.20;99.90;;;;;;5050674;28;20577;-80
2021/05/25 06:05:37;;;;;;;3.03;2.30;;;15.90;99.90;;;;;;5053886;28;20417;-80
2021/05/25 06:08:05;;;;;;;2.50;2.00;;;15.80;99.90;;;;;;5052427;28;20989;-79
2021/05/25 06:10:32;;;;;;;2.57;2.13;;;15.60;99.90;;;;;;5055038;28;20821;-79
2021/05/25 06:12:58;;;;;;;2.67;2.10;;;15.70;99.90;;;;;;5026308;28;21118;-80
2021/05/25 06:15:24;;;;;;;2.70;2.07;;;15.60;99.90;;;;;;5035340;28;20429;-81
2021/05/25 06:17:50;;;;;;;1.83;1.70;;;15.30;99.90;;;;;;5017734;28;20422;-80
2021/05/25 06:20:16;;;;;;;5.53;1.70;;;15.10;99.90;;;;;;5032808;28;20506;-80
2021/05/25 06:22:44;;;;;;;2.50;1.80;;;15.00;99.90;;;;;;5033855;28;20828;-80
2021/05/25 06:25:14;;;;;;;3.70;1.73;;;15.10;99.90;;;;;;5042913;28;21183;-81
2021/05/25 06:27:40;;;;;;;1.73;1.50;;;15.00;99.90;;;;;;5056033;28;20494;-80
2021/05/25 06:30:07;;;;;;;2.03;1.83;;;14.90;99.90;;;;;;5052261;28;20577;-80
2021/05/25 06:32:34;;;;;;;3.80;1.33;;;15.00;99.90;;;;;;5049587;28;20292;-80
2021/05/25 06:34:59;;;;;;;1.45;1.35;;;14.80;99.90;;;;;;5048140;28;20439;-80
2021/05/25 06:37:25;;;;;;;2.60;1.53;;;14.70;99.90;;;;;;5037426;28;20186;-80
2021/05/25 06:39:51;;;;;;;5.33;1.70;;;14.80;99.90;;;;;;5042891;28;20204;-81
2021/05/25 06:42:16;;;;;;;2.43;1.70;;;15.00;99.90;;;;;;5051553;28;20217;-81
2021/05/25 06:44:42;;;;;;;2.33;1.40;;;15.00;99.90;;;;;;5045944;28;20269;-79
2021/05/25 06:47:07;;;;;;;4.50;2.90;;;15.10;99.90;;;;;;5033839;28;20183;-80
2021/05/25 06:49:33;;;;;;;2.70;1.70;;;15.00;99.90;;;;;;5031012;28;20200;-81
2021/05/25 06:51:58;;;;;;;2.33;1.43;;;15.10;99.90;;;;;;5039764;28;20256;-79
2021/05/25 06:54:24;;;;;;;1.63;1.30;;;15.00;99.90;;;;;;5041320;28;20400;-79
2021/05/25 06:56:50;;;;;;;1.60;1.30;;;14.90;99.90;;;;;;5030181;28;20269;-78
2021/05/25 06:59:16;;;;;;;4.83;1.40;;;14.90;99.90;;;;;;5046743;28;20455;-78
2021/05/25 07:01:41;;;;;;;6.10;1.20;;;14.80;99.90;;;;;;5031903;28;20201;-80
2021/05/25 07:04:07;;;;;;;2.03;1.33;;;14.80;99.90;;;;;;5051907;28;20548;-79
2021/05/25 07:06:32;;;;;;;3.63;2.10;;;14.90;99.90;;;;;;5035844;28;20245;-80
2021/05/25 07:08:58;;;;;;;1.30;1.00;;;15.20;99.90;;;;;;5031430;28;20185;-78
2021/05/25 07:11:24;;;;;;;1.33;0.83;;;15.40;99.90;;;;;;5032269;28;20284;-79
2021/05/25 07:13:49;;;;;;;2.27;1.40;;;15.00;99.90;;;;;;5031780;28;20179;-80
2021/05/25 07:16:15;;;;;;;1.97;1.00;;;15.20;99.90;;;;;;5032337;28;20173;-79
2021/05/25 07:18:41;;;;;;;4.78;1.33;;;15.20;99.90;;;;;;5033566;28;20228;-78
2021/05/25 07:21:08;;;;;;;1.37;1.10;;;15.30;99.90;;;;;;5030040;28;20205;-79
2021/05/25 07:23:34;;;;;;;1.80;1.23;;;15.20;99.90;;;;;;5034218;28;20429;-79
2021/05/25 07:26:03;;;;;;;1.33;1.00;;;15.20;99.90;;;;;;5032288;28;20448;-80
2021/05/25 07:28:29;;;;;;;1.65;1.25;;;15.50;99.90;;;;;;5035556;28;20184;-78
2021/05/25 07:30:57;;;;;;;1.20;0.90;;;15.70;99.90;;;;;;5031707;28;20275;-79
2021/05/25 07:33:24;;;;;;;1.40;0.93;;;15.90;99.90;;;;;;5031012;28;20445;-79
2021/05/25 07:35:50;;;;;;;1.10;1.00;;;15.80;99.90;;;;;;5033638;28;20789;-79
2021/05/25 07:38:16;;;;;;;1.40;1.27;;;15.80;99.90;;;;;;5031291;28;20802;-80
2021/05/25 07:40:42;;;;;;;1.57;0.90;;;15.60;99.90;;;;;;5040356;28;20452;-78
2021/05/25 07:43:09;;;;;;;1.27;1.00;;;15.30;99.90;;;;;;5033194;28;20195;-81
2021/05/25 07:45:35;;;;;;;2.03;1.10;;;15.00;99.90;;;;;;5043293;28;20440;-79
2021/05/25 07:48:01;;;;;;;2.33;1.30;;;14.90;99.90;;;;;;5053924;28;20180;-79
2021/05/25 07:50:27;;;;;;;1.00;0.90;;;15.00;99.90;;;;;;5049127;28;20255;-80
2021/05/25 07:52:55;;;;;;;1.70;1.00;;;14.90;99.90;;;;;;5032889;28;20190;-79
2021/05/25 07:55:24;;;;;;;2.25;1.50;;;15.00;99.90;;;;;;5039495;28;20442;-79
2021/05/25 07:57:51;;;;;;;2.43;1.30;;;14.80;99.90;;;;;;5051250;28;20212;-78
2021/05/25 08:00:17;;;;;;;3.35;1.67;;;14.90;99.90;;;;;;5042878;28;20436;-78
2021/05/25 08:02:44;;;;;;;3.03;2.23;;;14.90;99.90;;;;;;5029314;28;20231;-78
2021/05/25 08:05:11;;;;;;;3.85;1.75;;;15.00;99.90;;;;;;5031359;28;20842;-78
2021/05/25 08:07:37;;;;;;;2.75;1.25;;;15.30;99.90;;;;;;5031467;28;20184;-79
2021/05/25 08:10:05;;;;;;;2.60;1.20;;;15.40;99.90;;;;;;5035835;28;20194;-78
2021/05/25 08:12:31;;;;;;;2.50;1.50;;;15.20;99.90;;;;;;5050886;28;20218;-79
2021/05/25 08:15:02;;;;;;;3.10;1.40;;;15.20;99.90;;;;;;5050403;28;20478;-78
2021/05/25 08:22:40;;;;;;;1.43;1.10;;;15.60;99.90;;;;;;5050345;28;20467;-78
2021/05/25 08:25:06;;;;;;;2.30;1.20;;;15.30;99.90;;;;;;5052520;28;20418;-78
2021/05/25 08:27:35;;;;;;;1.60;1.00;;;15.60;99.90;;;;;;5050146;28;20537;-78
2021/05/25 08:30:02;;;;;;;1.30;0.87;;;15.40;99.90;;;;;;5030896;28;20456;-78
2021/05/25 08:32:30;;;;;;;2.90;1.27;;;15.40;99.90;;;;;;5034553;28;20821;-79
2021/05/25 08:34:56;;;;;;;3.40;1.23;;;15.20;99.90;;;;;;5037320;28;20461;-79
2021/05/25 08:37:22;;;;;;;1.50;1.20;;;15.10;99.90;;;;;;5035070;28;20442;-79
2021/05/25 08:39:47;;;;;;;1.20;1.07;;;15.00;99.90;;;;;;5056027;28;20422;-80
2021/05/25 08:42:13;;;;;;;4.80;1.27;;;15.20;99.90;;;;;;5048951;28;20241;-79
2021/05/25 08:44:39;;;;;;;1.93;1.63;;;15.40;99.90;;;;;;5045056;28;20179;-79
2021/05/25 08:47:06;;;;;;;1.43;1.13;;;15.70;99.90;;;;;;5057061;28;20439;-78
2021/05/25 08:49:35;;;;;;;1.73;1.07;;;15.80;99.90;;;;;;5051085;28;20184;-78
2021/05/25 08:52:04;;;;;;;3.37;1.40;;;15.60;99.90;;;;;;5036693;28;20471;-78
2021/05/25 08:54:30;;;;;;;2.50;1.30;;;15.80;99.90;;;;;;5041003;28;20437;-79
2021/05/25 08:56:56;;;;;;;2.40;0.97;;;15.60;99.90;;;;;;5038576;28;20921;-81
2021/05/25 08:59:21;;;;;;;2.30;1.60;;;15.80;99.90;;;;;;5042731;28;20189;-79
2021/05/25 09:01:49;;;;;;;1.13;0.90;;;16.00;99.90;;;;;;5049029;28;20752;-78
2021/05/25 09:04:15;;;;;;;2.30;1.10;;;16.30;99.90;;;;;;5039713;28;20191;-78
2021/05/25 09:06:41;;;;;;;1.33;0.97;;;16.40;99.90;;;;;;5057293;28;20496;-78
2021/05/25 09:09:08;;;;;;;1.87;1.10;;;16.20;99.90;;;;;;5054888;28;20538;-78
2021/05/25 09:11:52;;;;;;;1.50;1.40;;;16.20;99.90;;;;;;5056420;28;20272;-78
2021/05/25 09:14:17;;;;;;;2.27;1.27;;;16.20;99.90;;;;;;5051282;28;20897;-79
2021/05/25 09:16:45;;;;;;;1.40;1.00;;;16.10;99.90;;;;;;5053168;28;21019;-76
2021/05/25 09:19:10;;;;;;;3.50;1.13;;;15.90;99.90;;;;;;5037347;28;20267;-77
2021/05/25 09:21:37;;;;;;;1.10;1.00;;;15.60;99.90;;;;;;5033966;28;20553;-77
2021/05/25 09:24:03;;;;;;;1.47;1.10;;;15.50;99.90;;;;;;5032007;28;20570;-78
2021/05/25 09:26:43;;;;;;;1.50;1.40;;;15.90;99.90;;;;;;5034840;28;20470;-76
2021/05/25 09:29:09;;;;;;;3.00;2.77;;;16.40;99.90;;;;;;5035976;28;20447;-77
2021/05/25 09:31:35;;;;;;;2.33;1.60;;;16.90;99.90;;;;;;5053516;28;20834;-77
2021/05/25 09:34:20;;;;;;;1.87;1.30;;;17.40;99.90;;;;;;5040208;28;20435;-77
2021/05/25 09:37:04;;;;;;;1.90;1.40;;;17.70;99.90;;;;;;5050784;28;20177;-78
2021/05/25 09:39:49;;;;;;;2.73;1.10;;;18.00;99.90;;;;;;5052270;28;20446;-78
2021/05/25 09:42:19;;;;;;;2.50;1.37;;;17.50;99.90;;;;;;5054664;28;20470;-77
2021/05/25 09:44:59;;;;;;;4.07;2.03;;;17.80;99.90;;;;;;5050156;28;20440;-77
2021/05/25 09:47:37;;;;;;;4.43;2.17;;;17.80;99.90;;;;;;5054797;28;20417;-80
2021/05/25 09:50:05;;;;;;;1.63;1.40;;;17.90;99.90;;;;;;5053844;28;20974;-80
2021/05/25 09:52:32;;;;;;;2.03;1.47;;;18.10;99.90;;;;;;5036077;28;20435;-78
2021/05/25 09:55:06;;;;;;;2.30;1.00;;;17.60;99.90;;;;;;5048617;28;20492;-83
2021/05/25 09:57:49;;;;;;;3.20;1.00;;;17.30;99.90;;;;;;5039082;28;20830;-83
2021/05/25 10:00:33;;;;;;;3.10;1.37;;;17.10;99.90;;;;;;5035993;28;20439;-80
2021/05/25 10:03:18;;;;;;;1.60;1.30;;;17.60;99.90;;;;;;5056701;28;20501;-79
2021/05/25 10:05:46;;;;;;;1.63;1.00;;;17.80;99.90;;;;;;5039665;28;20452;-81
2021/05/25 10:08:14;;;;;;;1.30;0.90;;;18.10;99.90;;;;;;5045510;28;20910;-80
2021/05/25 10:10:41;;;;;;;1.90;1.10;;;17.80;97.90;;;;;;5060529;28;20469;-81
2021/05/25 10:13:07;;;;;;;2.73;1.00;;;17.70;97.90;;;;;;5040212;28;20581;-80
2021/05/25 10:15:33;;;;;;;4.23;1.03;;;17.90;97.80;;;;;;5040486;28;20450;-80
2021/05/25 10:20:26;;;;;;;2.77;1.43;;;18.00;94.80;;;;;;5040998;28;20212;-81
2021/05/25 10:22:52;;;;;;;1.37;0.90;;;17.70;95.10;;;;;;5038480;28;20436;-79
2021/05/25 10:25:19;;;;;;;2.30;0.90;;;17.30;94.70;;;;;;5042447;28;20444;-80
2021/05/25 10:27:45;;;;;;;1.77;1.03;;;17.20;97.30;;;;;;5056077;28;20261;-80
2021/05/25 10:30:35;;;;;;;1.10;0.90;;;17.20;95.10;;;;;;5059321;28;20516;-80
2021/05/25 10:33:07;;;;;;;1.60;1.00;;;17.20;94.80;;;;;;5048305;28;20471;-79
2021/05/25 10:36:04;;;;;;;1.10;0.90;;;16.90;94.10;;;;;;5047240;28;21057;-80
2021/05/25 10:38:46;;;;;;;1.63;1.40;;;17.00;94.30;;;;;;5039127;28;20763;-80
2021/05/25 10:41:35;;;;;;;1.67;0.90;;;17.40;94.10;;;;;;5046635;28;20465;-79
2021/05/25 10:44:01;;;;;;;2.17;1.00;;;17.50;93.50;;;;;;5063034;28;20415;-80
2021/05/25 10:46:29;;;;;;;3.57;1.03;;;17.80;93.30;;;;;;5058054;28;20489;-80
2021/05/25 10:49:16;;;;;;;1.60;1.10;;;18.10;94.00;;;;;;5058376;28;20444;-81
2021/05/25 10:51:54;;;;;;;1.53;1.13;;;17.90;92.40;;;;;;5046932;28;20479;-81
2021/05/25 10:54:24;;;;;;;1.60;1.10;;;17.80;94.00;;;;;;5044091;28;20442;-81
2021/05/25 10:56:51;;;;;;;1.63;1.27;;;17.40;97.10;;;;;;5058558;28;20435;-80
2021/05/25 10:59:19;;;;;;;1.97;1.00;;;17.60;98.00;;;;;;5041119;28;20450;-81
2021/05/25 11:01:52;;;;;;;1.20;0.90;;;17.40;99.30;;;;;;5037584;28;20456;-80
2021/05/25 11:04:34;;;;;;;1.43;1.20;;;17.10;99.90;;;;;;5031713;28;20825;-79
2021/05/25 11:07:03;;;;;;;2.07;1.50;;;16.70;99.90;;;;;;5040249;28;20440;-81
2021/05/25 11:09:29;;;;;;;1.93;1.67;;;16.70;99.90;;;;;;5039010;28;20427;-79
2021/05/25 11:12:16;;;;;;;3.87;1.40;;;16.90;99.90;;;;;;5037763;28;20470;-79
2021/05/25 11:15:17;;;;;;;2.90;1.40;;;17.00;99.90;;;;;;5066183;28;20435;-79
2021/05/25 11:17:48;;;;;;;1.40;1.10;;;16.20;99.90;;;;;;5030821;28;20446;-82
2021/05/25 11:23:50;;;;;;;1.40;1.07;;;17.10;99.90;;;;;;5034234;28;20182;-79
2021/05/25 11:26:55;;;;;;;1.30;0.97;;;17.50;99.90;;;;;;5034273;28;20420;-80
2021/05/25 11:29:25;;;;;;;1.20;1.07;;;17.20;99.90;;;;;;5037578;28;20464;-80
2021/05/25 11:31:52;;;;;;;1.50;1.37;;;17.20;99.90;;;;;;5041774;28;20526;-80
2021/05/25 11:34:23;;;;;;;2.33;1.40;;;17.20;99.90;;;;;;5032803;28;20496;-79
2021/05/25 11:36:56;;;;;;;1.57;1.07;;;17.20;99.90;;;;;;5047281;28;20799;-79
2021/05/25 11:39:23;;;;;;;1.93;1.20;;;17.40;99.90;;;;;;5053131;28;20426;-80
2021/05/25 11:41:48;;;;;;;3.93;1.50;;;17.50;99.90;;;;;;5033118;28;20483;-78
2021/05/25 11:44:16;;;;;;;2.70;1.70;;;17.70;99.90;;;;;;5032852;28;20515;-78
2021/05/25 11:46:44;;;;;;;3.20;1.90;;;17.20;99.90;;;;;;5033705;28;20170;-79
2021/05/25 11:49:11;;;;;;;1.67;1.00;;;17.50;99.90;;;;;;5032699;28;20867;-79
2021/05/25 11:51:37;;;;;;;3.00;1.80;;;17.00;99.90;;;;;;5030562;28;20487;-80
2021/05/25 11:54:16;;;;;;;1.30;1.13;;;17.00;99.90;;;;;;5032294;28;20997;-78
2021/05/25 11:56:47;;;;;;;2.93;1.30;;;17.10;99.90;;;;;;5033261;28;20431;-79
2021/05/25 11:59:23;;;;;;;4.80;3.30;;;17.10;97.60;;;;;;5064900;28;20658;-79
2021/05/25 12:01:53;;;;;;;4.60;1.77;;;17.40;95.50;;;;;;5030954;28;20519;-79
2021/05/25 12:04:21;;;;;;;1.30;1.00;;;17.90;95.90;;;;;;5031652;28;20455;-78
2021/05/25 12:07:07;;;;;;;2.03;0.70;;;18.20;93.70;;;;;;5032361;28;20797;-79
2021/05/25 12:09:32;;;;;;;2.40;0.90;;;18.50;91.90;;;;;;5034634;28;20464;-79
2021/05/25 12:12:03;;;;;;;2.10;0.90;;;18.70;90.70;;;;;;5031381;28;20708;-79
2021/05/25 12:14:32;;;;;;;1.27;0.90;;;18.80;84.60;;;;;;5059139;28;20205;-80
2021/05/25 12:16:59;;;;;;;2.50;1.63;;;18.70;85.10;;;;;;5027949;28;20431;-81
2021/05/25 12:19:26;;;;;;;2.37;1.00;;;18.20;83.30;;;;;;5038956;28;20460;-80
2021/05/25 12:22:06;;;;;;;1.17;0.83;;;17.80;87.50;;;;;;5044100;28;20938;-79
2021/05/25 12:24:38;;;;;;;2.83;1.00;;;17.90;90.30;;;;;;5045482;28;20526;-80
2021/05/25 12:27:04;;;;;;;3.07;1.67;;;18.00;89.40;;;;;;5021565;28;20446;-80
2021/05/25 12:29:29;;;;;;;1.63;1.00;;;17.70;85.70;;;;;;5044696;28;20445;-79
2021/05/25 12:31:56;;;;;;;1.30;0.87;;;17.70;85.90;;;;;;5041753;28;20220;-81
2021/05/25 12:34:22;;;;;;;1.47;0.90;;;18.10;87.80;;;;;;5053393;28;20190;-81
2021/05/25 12:36:58;;;;;;;1.90;0.80;;;18.20;78.80;;;;;;5058742;28;20507;-81
2021/05/25 12:39:41;;;;;;;1.20;0.70;;;18.40;79.40;;;;;;5064269;28;20445;-81
2021/05/25 12:42:15;;;;;;;2.80;1.07;;;18.30;75.40;;;;;;5052344;28;20464;-81
2021/05/25 12:44:41;;;;;;;1.50;1.23;;;18.10;76.20;;;;;;5053637;28;20960;-82
2021/05/25 12:47:09;;;;;;;1.97;0.90;;;17.90;76.70;;;;;;5039236;28;20535;-81
2021/05/25 12:49:40;;;;;;;1.00;0.60;;;17.70;77.80;;;;;;5020725;28;20225;-81
2021/05/25 12:52:26;;;;;;;2.00;1.00;;;17.70;77.60;;;;;;5045194;28;20463;-81
2021/05/25 12:54:56;;;;;;;1.43;0.90;;;17.90;78.20;;;;;;5056211;28;20473;-80
2021/05/25 12:57:47;;;;;;;1.77;1.13;;;17.90;79.10;;;;;;5056860;28;20408;-80
2021/05/25 13:00:15;;;;;;;2.80;0.97;;;18.20;78.70;;;;;;5048472;28;20435;-78
2021/05/25 13:02:50;;;;;;;1.93;0.80;;;18.40;77.60;;;;;;5036873;28;20521;-79
2021/05/25 13:05:22;;;;;;;2.20;1.00;;;18.40;74.90;;;;;;5038838;28;20414;-80
2021/05/25 13:07:59;;;;;;;1.67;1.07;;;18.40;73.60;;;;;;5067183;28;20842;-80